createdAt,value
2016-08-21T00:00:27.451Z,17.17
2016-08-21T00:01:27.377Z,17.05
2016-08-21T00:02:27.374Z,17.03
2016-08-21T00:03:27.377Z,16.95
2016-08-21T00:04:27.308Z,16.95
2016-08-21T00:05:27.397Z,16.99
2016-08-21T00:06:27.393Z,16.97
2016-08-21T00:07:27.392Z,16.92
2016-08-21T00:08:27.398Z,16.92
2016-08-21T00:09:27.322Z,16.87
2016-08-21T00:10:27.314Z,16.76
2016-08-21T00:11:27.390Z,16.73
2016-08-21T00:12:27.391Z,16.7
2016-08-21T00:13:27.333Z,16.72
2016-08-21T00:14:27.419Z,16.67
2016-08-21T00:15:27.427Z,16.7
2016-08-21T00:16:27.410Z,16.57
2016-08-21T00:17:27.415Z,16.57
2016-08-21T00:18:27.430Z,16.52
2016-08-21T00:19:27.421Z,16.62
2016-08-21T00:20:27.363Z,16.55
2016-08-21T00:21:27.422Z,16.59
2016-08-21T00:22:27.540Z,16.49
2016-08-21T00:23:27.430Z,16.51
2016-08-21T00:24:27.426Z,16.47
2016-08-21T00:25:27.435Z,16.48
2016-08-21T00:26:27.424Z,16.45
2016-08-21T00:27:27.371Z,16.4
2016-08-21T00:28:27.569Z,16.45
2016-08-21T00:29:27.445Z,16.39
2016-08-21T00:30:27.385Z,16.34
2016-08-21T00:31:27.550Z,16.34
2016-08-21T00:32:27.579Z,16.37
2016-08-21T00:33:27.556Z,16.29
2016-08-21T00:34:27.489Z,16.26
2016-08-21T00:35:27.481Z,16.27
2016-08-21T00:36:27.478Z,16.27
2016-08-21T00:37:27.407Z,16.18
2016-08-21T00:38:27.790Z,16.26
2016-08-21T00:39:27.487Z,16.16
2016-08-21T00:40:27.415Z,16.11
2016-08-21T00:41:27.544Z,16.25
2016-08-21T00:42:27.577Z,16.08
2016-08-21T00:43:27.486Z,16.26
2016-08-21T00:44:27.485Z,16.26
2016-08-21T00:45:27.506Z,16.21
2016-08-21T00:46:27.506Z,16.13
2016-08-21T00:47:27.505Z,16.14
2016-08-21T00:48:27.607Z,16.16
2016-08-21T00:49:27.493Z,16.17
2016-08-21T00:50:27.507Z,16.13
2016-08-21T00:51:27.590Z,16.17
2016-08-21T00:52:27.596Z,16.08
2016-08-21T00:53:27.525Z,16.06
2016-08-21T00:54:27.611Z,15.93
2016-08-21T00:55:27.600Z,16
2016-08-21T00:56:27.512Z,15.93
2016-08-21T00:57:27.538Z,15.96
2016-08-21T00:58:27.443Z,15.91
2016-08-21T00:59:27.457Z,15.91
2016-08-21T01:00:27.605Z,15.81
2016-08-21T01:01:27.549Z,15.88
2016-08-21T01:02:27.548Z,15.81
2016-08-21T01:03:27.644Z,15.83
2016-08-21T01:04:27.541Z,15.77
2016-08-21T01:05:27.593Z,15.77
2016-08-21T01:06:27.653Z,15.74
2016-08-21T01:07:27.574Z,15.73
2016-08-21T01:08:27.557Z,15.75
2016-08-21T01:09:27.642Z,15.73
2016-08-21T01:10:27.560Z,15.65
2016-08-21T01:11:27.643Z,15.59
2016-08-21T01:12:27.615Z,15.65
2016-08-21T01:13:27.679Z,15.6
2016-08-21T01:14:27.572Z,15.6
2016-08-21T01:15:27.491Z,15.63
2016-08-21T01:16:27.492Z,15.63
2016-08-21T01:17:27.498Z,15.63
2016-08-21T01:18:27.518Z,15.58
2016-08-21T01:19:27.511Z,15.63
2016-08-21T01:20:27.521Z,15.59
2016-08-21T01:21:27.623Z,15.56
2016-08-21T01:22:27.510Z,15.55
2016-08-21T01:23:27.673Z,15.55
2016-08-21T01:24:27.600Z,15.41
2016-08-21T01:25:27.611Z,15.47
2016-08-21T01:26:27.530Z,15.43
2016-08-21T01:27:27.688Z,15.43
2016-08-21T01:28:27.647Z,15.45
2016-08-21T01:29:27.640Z,15.45
2016-08-21T01:30:27.555Z,15.4
2016-08-21T01:31:27.733Z,15.34
2016-08-21T01:32:27.714Z,15.44
2016-08-21T01:33:27.635Z,15.33
2016-08-21T01:34:27.725Z,15.35
2016-08-21T01:35:27.635Z,15.37
2016-08-21T01:36:27.663Z,15.27
2016-08-21T01:37:27.761Z,15.3
2016-08-21T01:38:27.831Z,15.2
2016-08-21T01:39:27.565Z,15.31
2016-08-21T01:40:27.581Z,15.23
2016-08-21T01:41:27.729Z,15.2
2016-08-21T01:42:27.735Z,15.18
2016-08-21T01:43:27.605Z,15.19
2016-08-21T01:44:27.732Z,15.18
2016-08-21T01:45:27.598Z,15.22
2016-08-21T01:46:27.687Z,15.15
2016-08-21T01:47:27.659Z,15.1
2016-08-21T01:48:27.705Z,15.15
2016-08-21T01:49:27.694Z,15.22
2016-08-21T01:50:27.686Z,15.25
2016-08-21T01:51:27.682Z,15.19
2016-08-21T01:52:27.600Z,15.2
2016-08-21T01:53:27.775Z,15.13
2016-08-21T01:54:27.679Z,15.19
2016-08-21T01:55:27.706Z,15.08
2016-08-21T01:56:27.626Z,15.12
2016-08-21T01:57:27.702Z,15.1
2016-08-21T01:58:27.702Z,15.12
2016-08-21T01:59:27.780Z,15.12
2016-08-21T02:00:27.696Z,15.16
2016-08-21T02:01:27.710Z,15.19
2016-08-21T02:02:27.653Z,15.12
2016-08-21T02:03:27.737Z,15.1
2016-08-21T02:04:27.787Z,15.1
2016-08-21T02:05:27.792Z,15.18
2016-08-21T02:06:27.737Z,15.15
2016-08-21T02:07:27.745Z,15.07
2016-08-21T02:08:27.751Z,15.13
2016-08-21T02:09:27.757Z,15.08
2016-08-21T02:10:27.654Z,15.1
2016-08-21T02:11:27.746Z,15.13
2016-08-21T02:12:27.743Z,15.1
2016-08-21T02:13:27.758Z,15.18
2016-08-21T02:14:27.864Z,15.12
2016-08-21T02:15:27.759Z,15.13
2016-08-21T02:16:27.759Z,15.2
2016-08-21T02:17:27.705Z,15.16
2016-08-21T02:18:27.783Z,15.16
2016-08-21T02:19:27.773Z,15.04
2016-08-21T02:20:27.700Z,15.18
2016-08-21T02:21:27.842Z,15.05
2016-08-21T02:22:27.842Z,15.15
2016-08-21T02:23:27.696Z,15.1
2016-08-21T02:24:27.770Z,15.05
2016-08-21T02:25:27.799Z,15.08
2016-08-21T02:26:27.807Z,15.07
2016-08-21T02:27:27.787Z,15.07
2016-08-21T02:28:27.777Z,15.16
2016-08-21T02:29:27.864Z,15.18
2016-08-21T02:30:27.865Z,15.07
2016-08-21T02:31:27.902Z,15.05
2016-08-21T02:32:27.729Z,14.98
2016-08-21T02:33:27.870Z,15.2
2016-08-21T02:34:27.735Z,15.1
2016-08-21T02:35:27.805Z,15.02
2016-08-21T02:36:27.758Z,15.05
2016-08-21T02:37:27.884Z,15.1
2016-08-21T02:38:27.812Z,15.05
2016-08-21T02:39:27.818Z,15.04
2016-08-21T02:40:27.754Z,15.02
2016-08-21T02:41:27.818Z,15.08
2016-08-21T02:42:27.895Z,15.05
2016-08-21T02:43:27.893Z,15.15
2016-08-21T02:44:27.851Z,15.02
2016-08-21T02:45:27.932Z,15.02
2016-08-21T02:46:27.852Z,14.94
2016-08-21T02:47:27.929Z,14.98
2016-08-21T02:48:27.844Z,14.97
2016-08-21T02:49:27.771Z,14.98
2016-08-21T02:50:27.779Z,14.95
2016-08-21T02:51:27.785Z,15
2016-08-21T02:52:27.934Z,15.02
2016-08-21T02:53:27.865Z,15.01
2016-08-21T02:54:27.856Z,14.86
2016-08-21T02:55:27.776Z,14.95
2016-08-21T02:56:27.786Z,14.97
2016-08-21T02:57:27.962Z,15.01
2016-08-21T02:58:27.792Z,14.94
2016-08-21T02:59:27.803Z,15
2016-08-21T03:00:27.809Z,15.05
2016-08-21T03:01:27.939Z,15.04
2016-08-21T03:02:27.808Z,15.02
2016-08-21T03:03:27.880Z,14.98
2016-08-21T03:04:27.880Z,14.94
2016-08-21T03:05:27.830Z,15.05
2016-08-21T03:06:27.922Z,15.04
2016-08-21T03:07:27.906Z,15.05
2016-08-21T03:08:27.883Z,15.07
2016-08-21T03:09:27.880Z,15.04
2016-08-21T03:10:27.918Z,14.95
2016-08-21T03:11:27.977Z,15
2016-08-21T03:12:27.973Z,15.02
2016-08-21T03:13:27.976Z,15.07
2016-08-21T03:14:27.832Z,14.97
2016-08-21T03:15:28.005Z,14.95
2016-08-21T03:16:27.949Z,15.05
2016-08-21T03:17:27.914Z,14.95
2016-08-21T03:18:27.941Z,15.01
2016-08-21T03:19:28.023Z,14.94
2016-08-21T03:20:27.930Z,15.04
2016-08-21T03:21:27.867Z,14.93
2016-08-21T03:22:27.998Z,14.9
2016-08-21T03:23:27.936Z,14.98
2016-08-21T03:24:27.932Z,14.97
2016-08-21T03:25:27.876Z,15.02
2016-08-21T03:26:27.865Z,15.01
2016-08-21T03:27:28.007Z,15.05
2016-08-21T03:28:27.884Z,15.01
2016-08-21T03:29:27.884Z,15
2016-08-21T03:30:27.892Z,14.98
2016-08-21T03:31:27.972Z,14.98
2016-08-21T03:32:27.964Z,15.05
2016-08-21T03:33:27.979Z,14.94
2016-08-21T03:34:27.990Z,15.01
2016-08-21T03:35:27.981Z,15.08
2016-08-21T03:36:27.977Z,15.08
2016-08-21T03:37:28.091Z,15.12
2016-08-21T03:42:46.584Z,15.1
2016-08-21T03:42:53.728Z,14.95
2016-08-21T03:43:53.655Z,15.05
2016-08-21T03:44:53.689Z,14.97
2016-08-21T03:45:53.665Z,14.95
2016-08-21T03:46:53.770Z,14.94
2016-08-21T03:47:53.758Z,14.87
2016-08-21T03:48:53.669Z,14.9
2016-08-21T03:49:53.681Z,14.94
2016-08-21T03:50:53.615Z,14.83
2016-08-21T03:51:53.679Z,14.97
2016-08-21T03:52:53.762Z,14.89
2016-08-21T03:53:53.682Z,14.9
2016-08-21T03:54:53.683Z,14.87
2016-08-21T03:55:53.700Z,14.86
2016-08-21T03:56:53.697Z,14.87
2016-08-21T03:57:53.792Z,14.9
2016-08-21T03:58:53.629Z,14.95
2016-08-21T03:59:53.698Z,14.94
2016-08-21T04:00:53.635Z,14.86
2016-08-21T04:01:53.633Z,14.87
2016-08-21T04:02:53.826Z,14.97
2016-08-21T04:03:53.646Z,15.05
2016-08-21T04:04:53.803Z,15.02
2016-08-21T04:05:53.644Z,15.01
2016-08-21T04:06:53.824Z,15.02
2016-08-21T04:07:53.728Z,15
2016-08-21T04:08:53.803Z,15.13
2016-08-21T04:09:53.660Z,15.16
2016-08-21T04:10:53.741Z,15.16
2016-08-21T04:11:53.666Z,15.07
2016-08-21T04:12:53.830Z,15.08
2016-08-21T04:13:53.752Z,15.1
2016-08-21T04:14:53.743Z,15.15
2016-08-21T04:15:53.806Z,15.07
2016-08-21T04:16:53.767Z,15.2
2016-08-21T04:17:53.764Z,15.12
2016-08-21T04:18:53.770Z,15.15
2016-08-21T04:19:53.832Z,15.18
2016-08-21T04:20:53.694Z,15.19
2016-08-21T04:21:53.840Z,15.23
2016-08-21T04:22:53.766Z,15.26
2016-08-21T04:23:53.773Z,15.23
2016-08-21T04:24:53.799Z,15.23
2016-08-21T04:25:53.870Z,15.33
2016-08-21T04:26:53.797Z,15.33
2016-08-21T04:27:53.866Z,15.34
2016-08-21T04:28:53.802Z,15.33
2016-08-21T04:29:53.781Z,15.31
2016-08-21T04:30:53.783Z,15.34
2016-08-21T04:31:53.803Z,15.37
2016-08-21T04:32:53.875Z,15.37
2016-08-21T04:33:53.875Z,15.49
2016-08-21T04:34:53.722Z,15.38
2016-08-21T04:35:53.829Z,15.41
2016-08-21T04:36:53.818Z,15.3
2016-08-21T04:37:53.825Z,15.34
2016-08-21T04:38:53.894Z,15.4
2016-08-21T04:39:53.824Z,15.35
2016-08-21T04:40:53.809Z,15.38
2016-08-21T04:41:53.823Z,15.33
2016-08-21T04:42:53.872Z,15.33
2016-08-21T04:43:53.830Z,15.34
2016-08-21T04:44:53.910Z,15.34
2016-08-21T04:45:53.811Z,15.34
2016-08-21T04:46:53.766Z,15.37
2016-08-21T04:47:53.834Z,15.37
2016-08-21T04:48:53.917Z,15.35
2016-08-21T04:49:53.844Z,15.34
2016-08-21T04:50:53.922Z,15.3
2016-08-21T04:51:53.854Z,15.34
2016-08-21T04:52:53.948Z,15.37
2016-08-21T04:53:53.800Z,15.33
2016-08-21T04:54:53.858Z,15.4
2016-08-21T04:55:53.881Z,15.33
2016-08-21T04:56:53.888Z,15.37
2016-08-21T04:57:53.892Z,15.41
2016-08-21T04:58:53.874Z,15.45
2016-08-21T04:59:53.882Z,15.49
2016-08-21T05:00:53.869Z,15.43
2016-08-21T05:01:53.877Z,15.52
2016-08-21T05:02:53.834Z,15.49
2016-08-21T05:03:53.954Z,15.51
2016-08-21T05:04:53.964Z,15.44
2016-08-21T05:05:53.970Z,15.56
2016-08-21T05:06:53.905Z,15.52
2016-08-21T05:07:53.984Z,15.6
2016-08-21T05:08:53.980Z,15.53
2016-08-21T05:09:53.901Z,15.62
2016-08-21T05:10:53.900Z,15.65
2016-08-21T05:11:53.838Z,15.65
2016-08-21T05:12:53.999Z,15.65
2016-08-21T05:13:53.905Z,15.62
2016-08-21T05:14:53.846Z,15.75
2016-08-21T05:15:53.914Z,15.71
2016-08-21T05:16:53.994Z,15.78
2016-08-21T05:17:53.925Z,15.83
2016-08-21T05:18:54.015Z,15.81
2016-08-21T05:19:53.856Z,15.88
2016-08-21T05:20:54.000Z,15.84
2016-08-21T05:21:53.930Z,15.86
2016-08-21T05:22:54.026Z,15.84
2016-08-21T05:23:54.026Z,15.93
2016-08-21T05:24:53.884Z,15.96
2016-08-21T05:25:53.948Z,15.95
2016-08-21T05:26:53.967Z,16.04
2016-08-21T05:27:53.950Z,16
2016-08-21T05:28:53.966Z,15.96
2016-08-21T05:29:53.875Z,15.98
2016-08-21T05:30:53.959Z,15.99
2016-08-21T05:31:53.949Z,16.02
2016-08-21T05:32:53.979Z,15.99
2016-08-21T05:33:54.058Z,16.07
2016-08-21T05:34:53.897Z,16.07
2016-08-21T05:35:53.897Z,16.11
2016-08-21T05:36:53.910Z,16.17
2016-08-21T05:37:53.978Z,16.26
2016-08-21T05:38:53.990Z,16.27
2016-08-21T05:39:53.984Z,16.33
2016-08-21T05:40:53.922Z,16.34
2016-08-21T05:41:53.922Z,16.33
2016-08-21T05:42:54.278Z,16.32
2016-08-21T05:43:53.934Z,16.37
2016-08-21T05:44:53.995Z,16.47
2016-08-21T05:45:53.942Z,16.34
2016-08-21T05:46:54.017Z,16.42
2016-08-21T05:47:54.011Z,16.42
2016-08-21T05:48:54.022Z,16.47
2016-08-21T05:49:54.014Z,16.51
2016-08-21T05:50:54.115Z,16.55
2016-08-21T05:51:54.111Z,16.66
2016-08-21T05:52:53.944Z,16.63
2016-08-21T05:53:54.020Z,16.55
2016-08-21T05:54:54.118Z,16.65
2016-08-21T05:55:54.113Z,16.59
2016-08-21T05:56:54.131Z,16.55
2016-08-21T05:57:54.080Z,16.73
2016-08-21T05:58:53.972Z,16.73
2016-08-21T05:59:53.990Z,16.63
2016-08-21T06:00:54.061Z,16.65
2016-08-21T06:01:54.116Z,16.66
2016-08-21T06:02:54.064Z,16.8
2016-08-21T06:03:54.119Z,16.76
2016-08-21T06:04:54.017Z,16.8
2016-08-21T06:05:54.049Z,16.77
2016-08-21T06:06:53.994Z,16.77
2016-08-21T06:07:54.059Z,16.9
2016-08-21T06:08:54.093Z,16.85
2016-08-21T06:09:54.170Z,16.9
2016-08-21T06:10:54.079Z,16.97
2016-08-21T06:11:54.067Z,17.15
2016-08-21T06:12:54.017Z,17.21
2016-08-21T06:13:54.081Z,17.42
2016-08-21T06:14:54.088Z,17.2
2016-08-21T06:15:54.009Z,17.2
2016-08-21T06:16:54.195Z,17.24
2016-08-21T06:17:54.180Z,17.27
2016-08-21T06:18:54.089Z,17.4
2016-08-21T06:19:54.090Z,17.28
2016-08-21T06:20:54.092Z,17.3
2016-08-21T06:21:54.106Z,17.15
2016-08-21T06:22:54.170Z,17.2
2016-08-21T06:23:54.106Z,17.22
2016-08-21T06:24:54.108Z,17.24
2016-08-21T06:25:54.046Z,17.12
2016-08-21T06:26:54.114Z,17.13
2016-08-21T06:27:54.122Z,17.18
2016-08-21T06:28:54.067Z,17.13
2016-08-21T06:29:54.057Z,17.17
2016-08-21T06:30:54.171Z,17.15
2016-08-21T06:31:54.114Z,17.22
2016-08-21T06:32:54.138Z,17.24
2016-08-21T06:33:54.203Z,17.21
2016-08-21T06:34:54.216Z,17.22
2016-08-21T06:35:54.132Z,17.18
2016-08-21T06:36:54.153Z,17.21
2016-08-21T06:37:54.149Z,17.31
2016-08-21T06:38:54.143Z,17.17
2016-08-21T06:39:54.150Z,17.21
2016-08-21T06:40:54.149Z,17.3
2016-08-21T06:41:54.086Z,17.42
2016-08-21T06:42:54.164Z,17.39
2016-08-21T06:43:54.224Z,17.42
2016-08-21T06:44:54.176Z,17.35
2016-08-21T06:45:54.085Z,17.22
2016-08-21T06:46:54.110Z,17.3
2016-08-21T06:47:54.133Z,17.35
2016-08-21T06:48:54.181Z,17.31
2016-08-21T06:49:54.178Z,17.25
2016-08-21T06:50:54.197Z,17.24
2016-08-21T06:51:54.183Z,17.27
2016-08-21T06:52:54.119Z,17.32
2016-08-21T06:53:54.263Z,17.36
2016-08-21T06:54:54.118Z,17.42
2016-08-21T06:55:54.275Z,17.35
2016-08-21T06:56:54.208Z,17.39
2016-08-21T06:57:54.214Z,17.24
2016-08-21T06:58:54.219Z,17.39
2016-08-21T06:59:54.216Z,17.43
2016-08-21T07:00:54.289Z,17.49
2016-08-21T07:01:54.211Z,17.49
2016-08-21T07:02:54.218Z,17.42
2016-08-21T07:03:54.227Z,17.45
2016-08-21T07:04:54.205Z,17.57
2016-08-21T07:05:54.318Z,17.71
2016-08-21T07:06:54.220Z,17.73
2016-08-21T07:07:54.297Z,17.9
2016-08-21T07:08:54.236Z,17.76
2016-08-21T07:09:54.161Z,17.88
2016-08-21T07:10:54.160Z,17.81
2016-08-21T07:11:54.248Z,17.76
2016-08-21T07:12:54.315Z,17.76
2016-08-21T07:13:54.180Z,17.92
2016-08-21T07:14:54.264Z,17.9
2016-08-21T07:15:54.179Z,17.94
2016-08-21T07:16:54.258Z,18.02
2016-08-21T07:17:54.249Z,18.06
2016-08-21T07:18:54.194Z,18.06
2016-08-21T07:19:54.266Z,17.92
2016-08-21T07:20:54.257Z,17.87
2016-08-21T07:21:54.195Z,17.81
2016-08-21T07:22:54.269Z,17.92
2016-08-21T07:23:54.359Z,18.05
2016-08-21T07:24:54.281Z,18.21
2016-08-21T07:25:54.371Z,18.11
2016-08-21T07:26:54.247Z,18.08
2016-08-21T07:27:54.370Z,18.16
2016-08-21T07:28:54.223Z,18.06
2016-08-21T07:29:54.316Z,18.13
2016-08-21T07:30:54.445Z,18.16
2016-08-21T07:31:54.220Z,18.11
2016-08-21T07:32:54.358Z,18.11
2016-08-21T07:33:54.310Z,18.19
2016-08-21T07:34:54.225Z,18.27
2016-08-21T07:35:54.409Z,18.45
2016-08-21T07:36:54.335Z,18.27
2016-08-21T07:37:54.313Z,18.34
2016-08-21T07:38:54.319Z,18.23
2016-08-21T07:39:54.336Z,18.24
2016-08-21T07:40:54.345Z,18.35
2016-08-21T07:41:54.318Z,18.29
2016-08-21T07:42:54.413Z,18.29
2016-08-21T07:43:54.456Z,18.29
2016-08-21T07:44:54.420Z,18.29
2016-08-21T07:45:54.265Z,18.27
2016-08-21T07:46:54.272Z,18.21
2016-08-21T07:47:54.376Z,18.27
2016-08-21T07:48:54.352Z,18.34
2016-08-21T07:49:54.361Z,18.16
2016-08-21T07:50:54.424Z,18.34
2016-08-21T07:51:54.358Z,18.29
2016-08-21T07:52:54.282Z,18.2
2016-08-21T07:53:54.354Z,18.17
2016-08-21T07:54:54.375Z,18.26
2016-08-21T07:55:54.456Z,18.06
2016-08-21T07:56:54.370Z,18.13
2016-08-21T07:57:54.386Z,18.14
2016-08-21T07:58:54.387Z,18.24
2016-08-21T07:59:54.474Z,18.08
2016-08-21T08:00:54.479Z,18.1
2016-08-21T08:01:54.392Z,18.06
2016-08-21T08:02:54.427Z,18.2
2016-08-21T08:03:54.476Z,18.36
2016-08-21T08:04:54.325Z,18.38
2016-08-21T08:05:54.396Z,18.32
2016-08-21T08:06:54.398Z,18.34
2016-08-21T08:07:54.428Z,18.47
2016-08-21T08:08:54.418Z,18.21
2016-08-21T08:09:54.492Z,18.17
2016-08-21T08:10:54.416Z,18.27
2016-08-21T08:11:54.357Z,18.03
2016-08-21T08:12:54.416Z,17.99
2016-08-21T08:13:54.446Z,17.99
2016-08-21T08:14:54.499Z,18.01
2016-08-21T08:15:54.358Z,17.94
2016-08-21T08:16:54.507Z,17.84
2016-08-21T08:17:54.429Z,18.01
2016-08-21T08:18:54.366Z,17.94
2016-08-21T08:19:54.439Z,17.92
2016-08-21T08:20:54.444Z,17.77
2016-08-21T08:21:54.530Z,17.77
2016-08-21T08:22:54.517Z,17.77
2016-08-21T08:23:54.442Z,17.66
2016-08-21T08:24:54.386Z,17.45
2016-08-21T08:25:54.530Z,17.55
2016-08-21T08:26:54.537Z,17.35
2016-08-21T08:27:54.541Z,17.38
2016-08-21T08:28:54.398Z,17.45
2016-08-21T08:29:54.464Z,17.43
2016-08-21T08:30:54.499Z,17.42
2016-08-21T08:31:54.489Z,17.42
2016-08-21T08:32:54.475Z,17.4
2016-08-21T08:33:54.550Z,17.49
2016-08-21T08:34:54.526Z,17.55
2016-08-21T08:35:54.510Z,17.69
2016-08-21T08:36:54.482Z,17.63
2016-08-21T08:37:54.485Z,17.66
2016-08-21T08:38:54.554Z,18.02
2016-08-21T08:39:54.507Z,18.14
2016-08-21T08:40:54.493Z,18.23
2016-08-21T08:41:54.575Z,18.03
2016-08-21T08:42:54.474Z,18.02
2016-08-21T08:43:54.819Z,17.94
2016-08-21T08:44:54.536Z,17.86
2016-08-21T08:45:54.503Z,17.8
2016-08-21T08:46:54.589Z,17.62
2016-08-21T08:47:54.433Z,17.76
2016-08-21T08:48:54.451Z,17.88
2016-08-21T08:49:54.467Z,17.88
2016-08-21T08:50:54.602Z,17.88
2016-08-21T08:51:54.526Z,17.94
2016-08-21T08:52:54.450Z,18.01
2016-08-21T08:53:54.539Z,17.79
2016-08-21T08:54:54.506Z,17.8
2016-08-21T08:55:54.619Z,17.68
2016-08-21T08:56:54.547Z,17.68
2016-08-21T08:57:54.551Z,17.95
2016-08-21T08:58:54.480Z,17.95
2016-08-21T08:59:54.637Z,17.77
2016-08-21T09:00:54.569Z,17.76
2016-08-21T09:01:54.485Z,17.68
2016-08-21T09:02:54.579Z,17.63
2016-08-21T09:03:54.572Z,17.63
2016-08-21T09:04:54.652Z,17.71
2016-08-21T09:05:54.629Z,17.73
2016-08-21T09:06:54.575Z,17.66
2016-08-21T09:07:54.570Z,17.66
2016-08-21T09:08:54.578Z,17.77
2016-08-21T09:09:54.672Z,17.73
2016-08-21T09:10:54.576Z,17.63
2016-08-21T09:11:54.510Z,17.69
2016-08-21T09:12:54.596Z,17.77
2016-08-21T09:13:54.518Z,17.69
2016-08-21T09:14:54.519Z,17.63
2016-08-21T09:15:55.618Z,17.73
2016-08-21T09:16:54.662Z,17.71
2016-08-21T09:17:54.614Z,17.52
2016-08-21T09:18:54.685Z,17.57
2016-08-21T09:19:54.675Z,17.58
2016-08-21T09:20:54.530Z,17.42
2016-08-21T09:21:54.618Z,17.43
2016-08-21T09:22:54.617Z,17.45
2016-08-21T09:23:54.554Z,17.46
2016-08-21T09:24:54.624Z,17.45
2016-08-21T09:25:54.556Z,17.12
2016-08-21T09:26:54.563Z,16.8
2016-08-21T09:27:54.704Z,16.51
2016-08-21T09:28:54.628Z,16.25
2016-08-21T09:29:54.703Z,16.21
2016-08-21T09:30:54.662Z,16.1
2016-08-21T09:31:54.653Z,16.07
2016-08-21T09:32:54.639Z,16.11
2016-08-21T09:33:54.725Z,16.06
2016-08-21T09:34:54.728Z,16.04
2016-08-21T09:35:54.665Z,15.99
2016-08-21T09:36:54.651Z,15.88
2016-08-21T09:37:54.733Z,15.71
2016-08-21T09:38:54.673Z,15.86
2016-08-21T09:39:54.664Z,15.73
2016-08-21T09:40:54.622Z,15.83
2016-08-21T09:41:54.746Z,15.63
2016-08-21T09:42:54.760Z,15.62
2016-08-21T09:43:54.687Z,15.58
2016-08-21T09:44:54.605Z,15.51
2016-08-21T09:45:54.670Z,15.56
2016-08-21T09:46:54.687Z,15.56
2016-08-21T09:47:54.757Z,15.43
2016-08-21T09:48:54.629Z,15.44
2016-08-21T09:49:54.781Z,15.47
2016-08-21T09:50:54.699Z,15.47
2016-08-21T09:51:54.786Z,15.41
2016-08-21T09:52:54.700Z,15.4
2016-08-21T09:53:54.643Z,15.49
2016-08-21T09:54:54.683Z,15.53
2016-08-21T09:55:54.640Z,15.45
2016-08-21T09:56:54.779Z,15.56
2016-08-21T09:57:54.733Z,15.53
2016-08-21T09:58:54.749Z,15.58
2016-08-21T09:59:54.820Z,15.6
2016-08-21T10:00:54.795Z,15.65
2016-08-21T10:01:54.912Z,15.7
2016-08-21T10:02:54.683Z,15.77
2016-08-21T10:03:54.726Z,15.96
2016-08-21T10:04:54.739Z,15.91
2016-08-21T10:05:54.755Z,16.07
2016-08-21T10:06:54.693Z,16.25
2016-08-21T10:07:54.809Z,16.44
2016-08-21T10:08:54.670Z,16.66
2016-08-21T10:09:54.822Z,16.87
2016-08-21T10:10:54.837Z,16.92
2016-08-21T10:11:54.747Z,17.06
2016-08-21T10:12:54.826Z,16.99
2016-08-21T10:13:54.754Z,16.84
2016-08-21T10:14:54.762Z,16.88
2016-08-21T10:15:54.772Z,16.8
2016-08-21T10:16:54.766Z,16.67
2016-08-21T10:17:54.845Z,16.73
2016-08-21T10:18:54.841Z,16.67
2016-08-21T10:19:54.858Z,16.7
2016-08-21T10:20:54.718Z,16.72
2016-08-21T10:21:54.787Z,16.8
2016-08-21T10:22:54.708Z,16.67
2016-08-21T10:23:54.726Z,16.54
2016-08-21T10:24:54.868Z,16.74
2016-08-21T10:25:54.800Z,16.76
2016-08-21T10:26:54.793Z,16.73
2016-08-21T10:27:54.884Z,16.72
2016-08-21T10:28:54.794Z,16.73
2016-08-21T10:29:54.815Z,16.81
2016-08-21T10:30:54.885Z,16.66
2016-08-21T10:31:54.731Z,16.67
2016-08-21T10:32:54.753Z,16.8
2016-08-21T10:33:54.748Z,16.84
2016-08-21T10:34:54.905Z,16.85
2016-08-21T10:35:54.745Z,16.91
2016-08-21T10:36:54.906Z,17.02
2016-08-21T10:37:54.832Z,16.99
2016-08-21T10:38:54.757Z,17.17
2016-08-21T10:39:54.844Z,17.07
2016-08-21T10:40:54.846Z,17.15
2016-08-21T10:41:54.921Z,17
2016-08-21T10:42:54.770Z,17.06
2016-08-21T10:43:54.762Z,17.1
2016-08-21T10:44:54.961Z,17.1
2016-08-21T10:45:54.773Z,17.09
2016-08-21T10:46:54.848Z,17.07
2016-08-21T10:47:54.790Z,17.1
2016-08-21T10:48:54.946Z,17.07
2016-08-21T10:49:54.947Z,17.18
2016-08-21T10:50:54.803Z,17.27
2016-08-21T10:51:54.785Z,17.17
2016-08-21T10:52:54.954Z,17.15
2016-08-21T10:53:54.865Z,17.2
2016-08-21T10:54:54.955Z,17.15
2016-08-21T10:55:54.799Z,17.18
2016-08-21T10:56:54.805Z,17.18
2016-08-21T10:57:54.959Z,17.12
2016-08-21T10:58:54.965Z,17.07
2016-08-21T10:59:54.901Z,17.03
2016-08-21T11:00:54.814Z,17.06
2016-08-21T11:01:54.980Z,17.05
2016-08-21T11:02:54.830Z,16.97
2016-08-21T11:03:54.901Z,16.87
2016-08-21T11:04:54.896Z,16.97
2016-08-21T11:05:54.909Z,16.94
2016-08-21T11:06:54.974Z,16.91
2016-08-21T11:07:54.836Z,16.87
2016-08-21T11:08:54.915Z,16.99
2016-08-21T11:09:55.006Z,16.95
2016-08-21T11:10:54.867Z,16.88
2016-08-21T11:11:54.924Z,16.88
2016-08-21T11:12:54.933Z,16.88
2016-08-21T11:13:54.946Z,17.02
2016-08-21T11:14:54.900Z,17
2016-08-21T11:15:54.854Z,16.97
2016-08-21T11:16:54.932Z,17.06
2016-08-21T11:17:54.863Z,17.13
2016-08-21T11:18:55.016Z,17.21
2016-08-21T11:19:55.191Z,17.22
2016-08-21T11:20:55.206Z,17.22
2016-08-21T11:21:54.967Z,17.24
2016-08-21T11:22:54.967Z,17.17
2016-08-21T11:23:55.143Z,17.21
2016-08-21T11:24:54.972Z,17.21
2016-08-21T11:25:55.051Z,17.28
2016-08-21T11:26:54.986Z,17.25
2016-08-21T11:27:55.319Z,17.27
2016-08-21T11:28:54.978Z,17.18
2016-08-21T11:29:54.984Z,17.12
2016-08-21T11:30:54.971Z,17.17
2016-08-21T11:31:54.989Z,17.13
2016-08-21T11:32:54.916Z,17.05
2016-08-21T11:33:54.983Z,17.12
2016-08-21T11:34:54.997Z,17.2
2016-08-21T11:35:55.035Z,17.1
2016-08-21T11:36:54.993Z,17.12
2016-08-21T11:37:55.100Z,17.15
2016-08-21T11:38:55.006Z,17.07
2016-08-21T11:39:55.113Z,17.09
2016-08-21T11:40:55.007Z,17.2
2016-08-21T11:41:55.014Z,17.24
2016-08-21T11:42:55.027Z,17.36
2016-08-21T11:43:55.000Z,17.3
2016-08-21T11:44:55.155Z,17.4
2016-08-21T11:45:55.044Z,17.38
2016-08-21T11:46:55.023Z,17.45
2016-08-21T11:47:55.058Z,17.38
2016-08-21T11:48:55.036Z,17.43
2016-08-21T11:49:55.029Z,17.57
2016-08-21T11:50:55.115Z,17.54
2016-08-21T11:51:55.109Z,17.57
2016-08-21T11:52:55.035Z,17.5
2016-08-21T11:53:54.970Z,17.49
2016-08-21T11:54:55.065Z,17.47
2016-08-21T11:55:54.976Z,17.58
2016-08-21T11:56:55.046Z,17.57
2016-08-21T11:57:55.064Z,17.77
2016-08-21T11:58:55.133Z,17.74
2016-08-21T11:59:55.061Z,17.68
2016-08-21T12:00:55.170Z,17.65
2016-08-21T12:01:55.209Z,17.63
2016-08-21T12:02:55.153Z,17.57
2016-08-21T12:03:55.297Z,17.65
2016-08-21T12:04:55.151Z,17.79
2016-08-21T12:05:55.109Z,17.88
2016-08-21T12:06:55.160Z,17.9
2016-08-21T12:07:55.017Z,17.9
2016-08-21T12:08:55.031Z,17.71
2016-08-21T12:09:55.133Z,17.68
2016-08-21T12:10:55.089Z,17.8
2016-08-21T12:11:55.172Z,17.81
2016-08-21T12:12:55.115Z,18.01
2016-08-21T12:13:55.051Z,18.08
2016-08-21T12:14:55.100Z,18.24
2016-08-21T12:15:55.119Z,18.34
2016-08-21T12:16:55.198Z,18.2
2016-08-21T12:17:55.132Z,18.35
2016-08-21T12:18:55.046Z,18.29
2016-08-21T12:19:55.080Z,18.31
2016-08-21T12:20:56.032Z,18.82
2016-08-21T12:21:55.290Z,18.65
2016-08-21T12:22:55.242Z,18.68
2016-08-21T12:23:55.128Z,19.06
2016-08-21T12:24:55.067Z,19.3
2016-08-21T12:25:55.216Z,19.07
2016-08-21T12:26:55.056Z,18.82
2016-08-21T12:27:55.073Z,18.94
2016-08-21T12:28:55.158Z,19.06
2016-08-21T12:29:55.104Z,18.9
2016-08-21T12:30:55.146Z,18.87
2016-08-21T12:31:55.152Z,18.72
2016-08-21T12:32:55.234Z,18.71
2016-08-21T12:33:55.163Z,18.69
2016-08-21T12:34:55.234Z,18.57
2016-08-21T12:35:55.243Z,18.53
2016-08-21T12:36:55.180Z,18.81
2016-08-21T12:37:55.162Z,18.75
2016-08-21T12:38:55.185Z,18.81
2016-08-21T12:39:55.242Z,18.84
2016-08-21T12:40:55.210Z,18.68
2016-08-21T12:41:55.184Z,18.45
2016-08-21T12:42:55.210Z,18.69
2016-08-21T12:43:55.208Z,18.76
2016-08-21T12:44:55.397Z,18.96
2016-08-21T12:45:55.327Z,18.82
2016-08-21T12:46:55.143Z,18.81
2016-08-21T12:47:55.217Z,18.89
2016-08-21T12:48:55.226Z,19.02
2016-08-21T12:49:56.239Z,19.15
2016-08-21T12:50:55.229Z,19.23
2016-08-21T12:51:55.218Z,19.47
2016-08-21T12:52:55.228Z,19.47
2016-08-21T12:53:55.165Z,19.7
2016-08-21T12:54:55.142Z,19.67
2016-08-21T12:55:55.172Z,19.86
2016-08-21T12:56:55.340Z,20.02
2016-08-21T12:57:55.204Z,20.15
2016-08-21T12:58:55.263Z,20.1
2016-08-21T12:59:55.252Z,20.1